sensor_id;sensor_type;location;lat;lon;timestamp;temperature;humidity
42743;DHT22;28397;44.552;-0.848;2022-10-16T00:01:18;15.50;99.90
42743;DHT22;28397;44.552;-0.848;2022-10-16T00:03:45;15.70;99.90
42743;DHT22;28397;44.552;-0.848;2022-10-16T00:06:10;15.60;99.90
42743;DHT22;28397;44.552;-0.848;2022-10-16T00:08:37;15.60;99.90
42743;DHT22;28397;44.552;-0.848;2022-10-16T00:11:07;15.50;99.90
42743;DHT22;28397;44.552;-0.848;2022-10-16T00:13:33;15.40;99.90
42743;DHT22;28397;44.552;-0.848;2022-10-16T00:15:59;15.20;99.90
42743;DHT22;28397;44.552;-0.848;2022-10-16T00:18:26;15.20;99.90
42743;DHT22;28397;44.552;-0.848;2022-10-16T00:20:51;15.20;99.90
42743;DHT22;28397;44.552;-0.848;2022-10-16T00:23:17;15.20;99.90
42743;DHT22;28397;44.552;-0.848;2022-10-16T00:25:42;15.20;99.90
42743;DHT22;28397;44.552;-0.848;2022-10-16T00:28:09;15.10;99.90
42743;DHT22;28397;44.552;-0.848;2022-10-16T00:30:37;15.10;99.90
42743;DHT22;28397;44.552;-0.848;2022-10-16T00:33:02;15.10;99.90
42743;DHT22;28397;44.552;-0.848;2022-10-16T00:35:28;15.20;99.90
42743;DHT22;28397;44.552;-0.848;2022-10-16T00:37:54;15.20;99.90
42743;DHT22;28397;44.552;-0.848;2022-10-16T00:40:19;15.20;99.90
42743;DHT22;28397;44.552;-0.848;2022-10-16T00:42:45;15.20;99.90
42743;DHT22;28397;44.552;-0.848;2022-10-16T00:45:11;15.40;99.90
42743;DHT22;28397;44.552;-0.848;2022-10-16T00:47:37;15.40;99.90
42743;DHT22;28397;44.552;-0.848;2022-10-16T00:50:16;15.50;99.90
42743;DHT22;28397;44.552;-0.848;2022-10-16T00:52:44;15.40;99.90
42743;DHT22;28397;44.552;-0.848;2022-10-16T00:55:11;15.40;99.90
42743;DHT22;28397;44.552;-0.848;2022-10-16T00:57:37;15.50;99.90
42743;DHT22;28397;44.552;-0.848;2022-10-16T01:00:06;15.50;99.90
42743;DHT22;28397;44.552;-0.848;2022-10-16T01:02:32;15.50;99.90
42743;DHT22;28397;44.552;-0.848;2022-10-16T01:04:58;15.50;99.90
42743;DHT22;28397;44.552;-0.848;2022-10-16T01:12:52;15.70;99.90
42743;DHT22;28397;44.552;-0.848;2022-10-16T01:15:55;15.80;99.90
42743;DHT22;28397;44.552;-0.848;2022-10-16T01:18:14;15.70;99.90
42743;DHT22;28397;44.552;-0.848;2022-10-16T01:20:54;15.70;99.90
42743;DHT22;28397;44.552;-0.848;2022-10-16T01:24:09;15.50;99.90
42743;DHT22;28397;44.552;-0.848;2022-10-16T01:31:10;15.30;99.90
42743;DHT22;28397;44.552;-0.848;2022-10-16T01:33:42;15.30;99.90
42743;DHT22;28397;44.552;-0.848;2022-10-16T01:36:10;15.20;99.90
42743;DHT22;28397;44.552;-0.848;2022-10-16T01:38:37;15.20;99.90
42743;DHT22;28397;44.552;-0.848;2022-10-16T01:41:11;15.30;99.90
42743;DHT22;28397;44.552;-0.848;2022-10-16T01:43:40;15.40;99.90
42743;DHT22;28397;44.552;-0.848;2022-10-16T01:46:06;15.40;99.90
42743;DHT22;28397;44.552;-0.848;2022-10-16T01:48:33;15.40;99.90
42743;DHT22;28397;44.552;-0.848;2022-10-16T01:51:08;15.30;99.90
42743;DHT22;28397;44.552;-0.848;2022-10-16T01:53:34;15.20;99.90
42743;DHT22;28397;44.552;-0.848;2022-10-16T01:56:00;15.10;99.90
42743;DHT22;28397;44.552;-0.848;2022-10-16T01:58:27;15.00;99.90
42743;DHT22;28397;44.552;-0.848;2022-10-16T02:00:56;15.00;99.90
42743;DHT22;28397;44.552;-0.848;2022-10-16T02:03:21;14.90;99.90
42743;DHT22;28397;44.552;-0.848;2022-10-16T02:05:54;14.80;99.90
42743;DHT22;28397;44.552;-0.848;2022-10-16T02:08:24;14.80;99.90
42743;DHT22;28397;44.552;-0.848;2022-10-16T02:10:51;14.80;99.90
42743;DHT22;28397;44.552;-0.848;2022-10-16T02:13:21;14.90;99.90
42743;DHT22;28397;44.552;-0.848;2022-10-16T02:15:47;14.70;99.90
42743;DHT22;28397;44.552;-0.848;2022-10-16T02:18:13;14.70;99.90
42743;DHT22;28397;44.552;-0.848;2022-10-16T02:20:50;14.60;99.90
42743;DHT22;28397;44.552;-0.848;2022-10-16T02:23:18;14.60;99.90
42743;DHT22;28397;44.552;-0.848;2022-10-16T02:25:45;14.80;99.90
42743;DHT22;28397;44.552;-0.848;2022-10-16T02:30:51;14.80;99.90
42743;DHT22;28397;44.552;-0.848;2022-10-16T02:33:19;14.70;99.90
42743;DHT22;28397;44.552;-0.848;2022-10-16T02:35:46;14.70;99.90
42743;DHT22;28397;44.552;-0.848;2022-10-16T02:38:12;14.70;99.90
42743;DHT22;28397;44.552;-0.848;2022-10-16T02:40:39;14.80;99.90
42743;DHT22;28397;44.552;-0.848;2022-10-16T02:43:05;14.90;99.90
42743;DHT22;28397;44.552;-0.848;2022-10-16T02:45:30;14.90;99.90
42743;DHT22;28397;44.552;-0.848;2022-10-16T02:47:56;14.70;99.90
42743;DHT22;28397;44.552;-0.848;2022-10-16T02:50:22;14.70;99.90
42743;DHT22;28397;44.552;-0.848;2022-10-16T02:52:47;14.60;99.90
42743;DHT22;28397;44.552;-0.848;2022-10-16T02:55:13;14.60;99.90
42743;DHT22;28397;44.552;-0.848;2022-10-16T02:57:39;14.60;99.90
42743;DHT22;28397;44.552;-0.848;2022-10-16T03:00:06;14.50;99.90
42743;DHT22;28397;44.552;-0.848;2022-10-16T03:02:32;14.50;99.90
42743;DHT22;28397;44.552;-0.848;2022-10-16T03:04:58;14.40;99.90
42743;DHT22;28397;44.552;-0.848;2022-10-16T03:07:23;14.40;99.90
42743;DHT22;28397;44.552;-0.848;2022-10-16T03:09:49;14.30;99.90
42743;DHT22;28397;44.552;-0.848;2022-10-16T03:12:14;14.30;99.90
42743;DHT22;28397;44.552;-0.848;2022-10-16T03:14:40;14.30;99.90
42743;DHT22;28397;44.552;-0.848;2022-10-16T03:17:06;14.20;99.90
42743;DHT22;28397;44.552;-0.848;2022-10-16T03:19:31;14.20;99.90
42743;DHT22;28397;44.552;-0.848;2022-10-16T03:21:57;14.10;99.90
42743;DHT22;28397;44.552;-0.848;2022-10-16T03:24:22;14.00;99.90
42743;DHT22;28397;44.552;-0.848;2022-10-16T03:26:48;14.00;99.90
42743;DHT22;28397;44.552;-0.848;2022-10-16T03:29:13;14.00;99.90
42743;DHT22;28397;44.552;-0.848;2022-10-16T03:31:39;13.90;99.90
42743;DHT22;28397;44.552;-0.848;2022-10-16T03:34:04;13.90;99.90
42743;DHT22;28397;44.552;-0.848;2022-10-16T03:36:30;13.80;99.90
42743;DHT22;28397;44.552;-0.848;2022-10-16T03:38:56;13.90;99.90
42743;DHT22;28397;44.552;-0.848;2022-10-16T03:41:22;13.80;99.90
42743;DHT22;28397;44.552;-0.848;2022-10-16T03:43:47;13.80;99.90
42743;DHT22;28397;44.552;-0.848;2022-10-16T03:46:13;13.80;99.90
42743;DHT22;28397;44.552;-0.848;2022-10-16T03:48:38;13.70;99.90
42743;DHT22;28397;44.552;-0.848;2022-10-16T03:51:05;14.00;99.90
42743;DHT22;28397;44.552;-0.848;2022-10-16T03:53:31;13.90;99.90
42743;DHT22;28397;44.552;-0.848;2022-10-16T03:55:56;13.80;99.90
42743;DHT22;28397;44.552;-0.848;2022-10-16T03:58:22;13.90;99.90
42743;DHT22;28397;44.552;-0.848;2022-10-16T04:00:47;13.90;99.90
42743;DHT22;28397;44.552;-0.848;2022-10-16T04:03:13;14.30;99.90
42743;DHT22;28397;44.552;-0.848;2022-10-16T04:05:39;14.20;99.90
42743;DHT22;28397;44.552;-0.848;2022-10-16T04:08:05;14.10;99.90
42743;DHT22;28397;44.552;-0.848;2022-10-16T04:10:31;14.30;99.90
42743;DHT22;28397;44.552;-0.848;2022-10-16T04:12:56;14.40;99.90
42743;DHT22;28397;44.552;-0.848;2022-10-16T04:15:22;14.40;99.90
42743;DHT22;28397;44.552;-0.848;2022-10-16T04:17:48;14.40;99.90
42743;DHT22;28397;44.552;-0.848;2022-10-16T04:20:14;14.20;99.90
42743;DHT22;28397;44.552;-0.848;2022-10-16T04:22:39;14.40;99.90
42743;DHT22;28397;44.552;-0.848;2022-10-16T04:25:05;14.20;99.90
42743;DHT22;28397;44.552;-0.848;2022-10-16T04:27:31;14.10;99.90
42743;DHT22;28397;44.552;-0.848;2022-10-16T04:29:57;14.20;99.90
42743;DHT22;28397;44.552;-0.848;2022-10-16T04:32:22;14.20;99.90
42743;DHT22;28397;44.552;-0.848;2022-10-16T04:34:48;14.40;99.90
42743;DHT22;28397;44.552;-0.848;2022-10-16T04:37:13;14.40;99.90
42743;DHT22;28397;44.552;-0.848;2022-10-16T04:39:39;14.40;99.90
42743;DHT22;28397;44.552;-0.848;2022-10-16T04:42:05;14.40;99.90
42743;DHT22;28397;44.552;-0.848;2022-10-16T04:44:30;14.50;99.90
42743;DHT22;28397;44.552;-0.848;2022-10-16T04:46:56;14.50;99.90
42743;DHT22;28397;44.552;-0.848;2022-10-16T04:49:21;14.70;99.90
42743;DHT22;28397;44.552;-0.848;2022-10-16T04:51:47;14.70;99.90
42743;DHT22;28397;44.552;-0.848;2022-10-16T04:54:12;14.60;99.90
42743;DHT22;28397;44.552;-0.848;2022-10-16T04:56:38;14.60;99.90
42743;DHT22;28397;44.552;-0.848;2022-10-16T04:59:12;14.60;99.90
42743;DHT22;28397;44.552;-0.848;2022-10-16T05:01:38;14.60;99.90
42743;DHT22;28397;44.552;-0.848;2022-10-16T05:04:04;14.40;99.90
42743;DHT22;28397;44.552;-0.848;2022-10-16T05:06:29;14.50;99.90
42743;DHT22;28397;44.552;-0.848;2022-10-16T05:08:55;14.40;99.90
42743;DHT22;28397;44.552;-0.848;2022-10-16T05:11:20;14.30;99.90
42743;DHT22;28397;44.552;-0.848;2022-10-16T05:13:46;14.30;99.90
42743;DHT22;28397;44.552;-0.848;2022-10-16T05:16:12;14.40;99.90
42743;DHT22;28397;44.552;-0.848;2022-10-16T05:18:37;14.40;99.90
42743;DHT22;28397;44.552;-0.848;2022-10-16T05:21:03;14.30;99.90
42743;DHT22;28397;44.552;-0.848;2022-10-16T05:23:29;14.10;99.90
42743;DHT22;28397;44.552;-0.848;2022-10-16T05:25:57;14.30;99.90
42743;DHT22;28397;44.552;-0.848;2022-10-16T05:28:27;14.20;99.90
42743;DHT22;28397;44.552;-0.848;2022-10-16T05:30:53;14.20;99.90
42743;DHT22;28397;44.552;-0.848;2022-10-16T05:33:22;14.00;99.90
42743;DHT22;28397;44.552;-0.848;2022-10-16T05:35:48;13.90;99.90
42743;DHT22;28397;44.552;-0.848;2022-10-16T05:38:15;13.80;99.90
42743;DHT22;28397;44.552;-0.848;2022-10-16T05:40:41;13.70;99.90
42743;DHT22;28397;44.552;-0.848;2022-10-16T05:43:06;13.70;99.90
42743;DHT22;28397;44.552;-0.848;2022-10-16T05:45:32;13.60;99.90
42743;DHT22;28397;44.552;-0.848;2022-10-16T05:47:57;13.70;99.90
42743;DHT22;28397;44.552;-0.848;2022-10-16T05:50:23;13.60;99.90
42743;DHT22;28397;44.552;-0.848;2022-10-16T05:52:48;13.60;99.90
42743;DHT22;28397;44.552;-0.848;2022-10-16T05:55:14;13.50;99.90
42743;DHT22;28397;44.552;-0.848;2022-10-16T05:57:40;13.50;99.90
42743;DHT22;28397;44.552;-0.848;2022-10-16T06:00:06;13.50;99.90
42743;DHT22;28397;44.552;-0.848;2022-10-16T06:02:32;13.30;99.90
42743;DHT22;28397;44.552;-0.848;2022-10-16T06:04:57;13.30;99.90
42743;DHT22;28397;44.552;-0.848;2022-10-16T06:07:23;13.30;99.90
42743;DHT22;28397;44.552;-0.848;2022-10-16T06:09:49;13.30;99.90
42743;DHT22;28397;44.552;-0.848;2022-10-16T06:12:15;13.30;99.90
42743;DHT22;28397;44.552;-0.848;2022-10-16T06:14:41;13.20;99.90
42743;DHT22;28397;44.552;-0.848;2022-10-16T06:17:06;13.10;99.90
42743;DHT22;28397;44.552;-0.848;2022-10-16T06:19:32;13.10;99.90
42743;DHT22;28397;44.552;-0.848;2022-10-16T06:21:57;13.10;99.90
42743;DHT22;28397;44.552;-0.848;2022-10-16T06:24:24;13.20;99.90
42743;DHT22;28397;44.552;-0.848;2022-10-16T06:26:49;13.30;99.90
42743;DHT22;28397;44.552;-0.848;2022-10-16T06:29:15;13.30;99.90
42743;DHT22;28397;44.552;-0.848;2022-10-16T06:31:40;13.40;99.90
42743;DHT22;28397;44.552;-0.848;2022-10-16T06:34:08;13.30;99.90
42743;DHT22;28397;44.552;-0.848;2022-10-16T06:36:35;13.20;99.90
42743;DHT22;28397;44.552;-0.848;2022-10-16T06:39:01;13.10;99.90
42743;DHT22;28397;44.552;-0.848;2022-10-16T06:41:27;13.10;99.90
42743;DHT22;28397;44.552;-0.848;2022-10-16T06:43:52;13.70;99.90
42743;DHT22;28397;44.552;-0.848;2022-10-16T06:46:19;14.30;99.90
42743;DHT22;28397;44.552;-0.848;2022-10-16T06:48:45;14.70;99.90
42743;DHT22;28397;44.552;-0.848;2022-10-16T06:51:12;15.10;99.90
42743;DHT22;28397;44.552;-0.848;2022-10-16T06:53:40;15.30;99.90
42743;DHT22;28397;44.552;-0.848;2022-10-16T06:56:06;16.00;99.90
42743;DHT22;28397;44.552;-0.848;2022-10-16T06:58:32;16.30;99.90
42743;DHT22;28397;44.552;-0.848;2022-10-16T07:00:57;16.60;99.90
42743;DHT22;28397;44.552;-0.848;2022-10-16T07:03:23;16.90;99.90
42743;DHT22;28397;44.552;-0.848;2022-10-16T07:05:49;17.60;99.90
42743;DHT22;28397;44.552;-0.848;2022-10-16T07:08:14;17.80;99.90
42743;DHT22;28397;44.552;-0.848;2022-10-16T07:10:40;18.10;99.90
42743;DHT22;28397;44.552;-0.848;2022-10-16T07:13:05;18.20;99.90
42743;DHT22;28397;44.552;-0.848;2022-10-16T07:15:33;18.40;99.90
42743;DHT22;28397;44.552;-0.848;2022-10-16T07:17:58;18.80;99.90
42743;DHT22;28397;44.552;-0.848;2022-10-16T07:20:24;19.20;99.90
42743;DHT22;28397;44.552;-0.848;2022-10-16T07:22:49;19.50;99.90
42743;DHT22;28397;44.552;-0.848;2022-10-16T07:25:16;20.10;99.90
42743;DHT22;28397;44.552;-0.848;2022-10-16T07:27:41;20.50;99.90
42743;DHT22;28397;44.552;-0.848;2022-10-16T07:30:07;20.50;99.90
42743;DHT22;28397;44.552;-0.848;2022-10-16T07:32:33;20.50;99.90
42743;DHT22;28397;44.552;-0.848;2022-10-16T07:34:59;20.50;99.90
42743;DHT22;28397;44.552;-0.848;2022-10-16T07:37:24;21.50;99.90
42743;DHT22;28397;44.552;-0.848;2022-10-16T07:39:50;21.20;99.90
42743;DHT22;28397;44.552;-0.848;2022-10-16T07:42:15;21.40;99.90
42743;DHT22;28397;44.552;-0.848;2022-10-16T07:44:41;21.40;99.90
42743;DHT22;28397;44.552;-0.848;2022-10-16T07:47:07;21.70;99.90
42743;DHT22;28397;44.552;-0.848;2022-10-16T07:49:32;21.90;99.90
42743;DHT22;28397;44.552;-0.848;2022-10-16T07:51:58;22.10;99.90
42743;DHT22;28397;44.552;-0.848;2022-10-16T07:54:24;21.20;99.90
42743;DHT22;28397;44.552;-0.848;2022-10-16T07:56:49;21.30;99.90
42743;DHT22;28397;44.552;-0.848;2022-10-16T07:59:15;22.20;99.90
42743;DHT22;28397;44.552;-0.848;2022-10-16T08:01:40;22.70;99.90
42743;DHT22;28397;44.552;-0.848;2022-10-16T08:04:07;22.40;99.90
42743;DHT22;28397;44.552;-0.848;2022-10-16T08:06:35;22.90;99.90
42743;DHT22;28397;44.552;-0.848;2022-10-16T08:09:01;23.20;99.90
42743;DHT22;28397;44.552;-0.848;2022-10-16T08:11:26;23.80;99.90
42743;DHT22;28397;44.552;-0.848;2022-10-16T08:13:52;22.20;99.90
42743;DHT22;28397;44.552;-0.848;2022-10-16T08:16:17;21.40;99.90
42743;DHT22;28397;44.552;-0.848;2022-10-16T08:18:43;22.00;99.90
42743;DHT22;28397;44.552;-0.848;2022-10-16T08:21:12;22.70;99.90
42743;DHT22;28397;44.552;-0.848;2022-10-16T08:23:38;23.40;99.90
42743;DHT22;28397;44.552;-0.848;2022-10-16T08:26:07;24.30;99.90
42743;DHT22;28397;44.552;-0.848;2022-10-16T08:28:33;24.70;99.90
42743;DHT22;28397;44.552;-0.848;2022-10-16T08:31:08;23.90;99.90
42743;DHT22;28397;44.552;-0.848;2022-10-16T08:33:34;24.20;99.90
42743;DHT22;28397;44.552;-0.848;2022-10-16T08:36:00;24.90;99.90
42743;DHT22;28397;44.552;-0.848;2022-10-16T08:38:26;25.20;99.90
42743;DHT22;28397;44.552;-0.848;2022-10-16T08:40:51;24.40;99.90
42743;DHT22;28397;44.552;-0.848;2022-10-16T08:51:09;24.80;99.90
42743;DHT22;28397;44.552;-0.848;2022-10-16T08:53:45;25.10;99.90
42743;DHT22;28397;44.552;-0.848;2022-10-16T08:56:13;26.50;99.90
42743;DHT22;28397;44.552;-0.848;2022-10-16T08:58:39;26.30;99.90
42743;DHT22;28397;44.552;-0.848;2022-10-16T09:01:09;26.00;99.90
42743;DHT22;28397;44.552;-0.848;2022-10-16T09:03:40;26.70;99.90
42743;DHT22;28397;44.552;-0.848;2022-10-16T09:06:21;26.70;99.90
42743;DHT22;28397;44.552;-0.848;2022-10-16T09:13:58;29.30;99.90
42743;DHT22;28397;44.552;-0.848;2022-10-16T09:16:30;29.00;99.90
42743;DHT22;28397;44.552;-0.848;2022-10-16T09:21:33;27.50;99.90
42743;DHT22;28397;44.552;-0.848;2022-10-16T09:24:10;28.80;99.90
42743;DHT22;28397;44.552;-0.848;2022-10-16T09:26:37;27.70;99.90
42743;DHT22;28397;44.552;-0.848;2022-10-16T09:29:02;27.30;99.90
42743;DHT22;28397;44.552;-0.848;2022-10-16T09:31:28;28.70;99.90
42743;DHT22;28397;44.552;-0.848;2022-10-16T09:33:55;28.40;99.90
42743;DHT22;28397;44.552;-0.848;2022-10-16T09:36:23;29.40;99.90
42743;DHT22;28397;44.552;-0.848;2022-10-16T09:38:49;29.10;99.90
42743;DHT22;28397;44.552;-0.848;2022-10-16T09:41:16;29.00;99.90
42743;DHT22;28397;44.552;-0.848;2022-10-16T09:49:19;28.40;99.90
42743;DHT22;28397;44.552;-0.848;2022-10-16T09:51:45;29.60;99.90
42743;DHT22;28397;44.552;-0.848;2022-10-16T09:54:15;28.80;99.90
42743;DHT22;28397;44.552;-0.848;2022-10-16T09:56:41;28.60;99.90
42743;DHT22;28397;44.552;-0.848;2022-10-16T10:01:37;28.60;99.90
42743;DHT22;28397;44.552;-0.848;2022-10-16T10:04:03;30.10;99.90
42743;DHT22;28397;44.552;-0.848;2022-10-16T10:14:49;29.60;99.90
42743;DHT22;28397;44.552;-0.848;2022-10-16T10:19:48;28.90;99.90
42743;DHT22;28397;44.552;-0.848;2022-10-16T10:22:17;29.80;99.90
42743;DHT22;28397;44.552;-0.848;2022-10-16T10:24:44;30.70;99.90
42743;DHT22;28397;44.552;-0.848;2022-10-16T10:27:14;31.20;99.90
42743;DHT22;28397;44.552;-0.848;2022-10-16T10:32:23;31.30;99.90
42743;DHT22;28397;44.552;-0.848;2022-10-16T10:35:34;32.80;99.90
42743;DHT22;28397;44.552;-0.848;2022-10-16T10:37:59;32.00;99.90
42743;DHT22;28397;44.552;-0.848;2022-10-16T10:40:46;30.10;99.90
42743;DHT22;28397;44.552;-0.848;2022-10-16T10:45:59;31.60;99.90
42743;DHT22;28397;44.552;-0.848;2022-10-16T10:51:20;31.80;99.90
42743;DHT22;28397;44.552;-0.848;2022-10-16T10:56:19;31.10;99.90
42743;DHT22;28397;44.552;-0.848;2022-10-16T11:01:13;30.10;99.90
42743;DHT22;28397;44.552;-0.848;2022-10-16T11:09:07;31.20;99.90
42743;DHT22;28397;44.552;-0.848;2022-10-16T11:11:35;31.10;99.90
42743;DHT22;28397;44.552;-0.848;2022-10-16T11:16:31;31.00;99.90
42743;DHT22;28397;44.552;-0.848;2022-10-16T11:21:31;30.30;99.90
42743;DHT22;28397;44.552;-0.848;2022-10-16T11:24:35;30.10;99.90
42743;DHT22;28397;44.552;-0.848;2022-10-16T11:26:51;30.20;99.90
42743;DHT22;28397;44.552;-0.848;2022-10-16T11:29:26;29.30;99.90
42743;DHT22;28397;44.552;-0.848;2022-10-16T11:32:18;30.20;99.90
42743;DHT22;28397;44.552;-0.848;2022-10-16T11:34:44;29.70;99.90
42743;DHT22;28397;44.552;-0.848;2022-10-16T11:40:22;30.10;99.90
42743;DHT22;28397;44.552;-0.848;2022-10-16T11:42:50;30.00;99.90
42743;DHT22;28397;44.552;-0.848;2022-10-16T11:48:07;28.80;99.90
42743;DHT22;28397;44.552;-0.848;2022-10-16T11:50:43;29.30;99.90
42743;DHT22;28397;44.552;-0.848;2022-10-16T11:55:39;29.20;99.90
42743;DHT22;28397;44.552;-0.848;2022-10-16T11:58:06;28.70;99.90
42743;DHT22;28397;44.552;-0.848;2022-10-16T12:00:56;29.30;99.90
42743;DHT22;28397;44.552;-0.848;2022-10-16T12:03:34;29.30;99.90
42743;DHT22;28397;44.552;-0.848;2022-10-16T12:08:27;29.60;99.90
42743;DHT22;28397;44.552;-0.848;2022-10-16T12:10:53;29.60;99.90
42743;DHT22;28397;44.552;-0.848;2022-10-16T12:13:33;29.50;99.90
42743;DHT22;28397;44.552;-0.848;2022-10-16T12:18:30;29.10;99.90
42743;DHT22;28397;44.552;-0.848;2022-10-16T12:20:59;29.30;99.90
42743;DHT22;28397;44.552;-0.848;2022-10-16T12:23:30;29.70;99.90
42743;DHT22;28397;44.552;-0.848;2022-10-16T12:25:56;29.60;98.80
42743;DHT22;28397;44.552;-0.848;2022-10-16T12:28:26;29.20;99.10
42743;DHT22;28397;44.552;-0.848;2022-10-16T12:31:00;29.70;99.70
42743;DHT22;28397;44.552;-0.848;2022-10-16T12:35:52;29.50;99.70
42743;DHT22;28397;44.552;-0.848;2022-10-16T12:40:44;29.50;97.40
42743;DHT22;28397;44.552;-0.848;2022-10-16T12:43:56;29.50;96.70
42743;DHT22;28397;44.552;-0.848;2022-10-16T12:46:39;29.30;97.20
42743;DHT22;28397;44.552;-0.848;2022-10-16T12:48:45;29.30;97.40
42743;DHT22;28397;44.552;-0.848;2022-10-16T13:09:40;29.00;96.50
42743;DHT22;28397;44.552;-0.848;2022-10-16T13:12:15;29.10;97.00
42743;DHT22;28397;44.552;-0.848;2022-10-16T13:32:38;28.90;97.30
42743;DHT22;28397;44.552;-0.848;2022-10-16T13:35:15;28.70;97.60
42743;DHT22;28397;44.552;-0.848;2022-10-16T13:37:43;28.60;98.10
42743;DHT22;28397;44.552;-0.848;2022-10-16T13:40:12;28.50;96.80
42743;DHT22;28397;44.552;-0.848;2022-10-16T13:42:43;28.70;96.40
42743;DHT22;28397;44.552;-0.848;2022-10-16T13:45:16;28.60;96.70
42743;DHT22;28397;44.552;-0.848;2022-10-16T13:47:42;28.60;96.00
42743;DHT22;28397;44.552;-0.848;2022-10-16T13:50:12;28.60;96.60
42743;DHT22;28397;44.552;-0.848;2022-10-16T13:52:38;28.50;97.20
42743;DHT22;28397;44.552;-0.848;2022-10-16T13:55:10;28.60;95.40
42743;DHT22;28397;44.552;-0.848;2022-10-16T13:57:36;28.70;96.40
42743;DHT22;28397;44.552;-0.848;2022-10-16T14:00:02;28.60;95.20
42743;DHT22;28397;44.552;-0.848;2022-10-16T14:02:33;28.50;95.50
42743;DHT22;28397;44.552;-0.848;2022-10-16T14:05:00;28.50;95.00
42743;DHT22;28397;44.552;-0.848;2022-10-16T14:07:27;28.50;95.10
42743;DHT22;28397;44.552;-0.848;2022-10-16T14:09:54;28.50;96.10
42743;DHT22;28397;44.552;-0.848;2022-10-16T14:12:20;28.50;95.90
42743;DHT22;28397;44.552;-0.848;2022-10-16T14:14:48;28.50;95.90
42743;DHT22;28397;44.552;-0.848;2022-10-16T14:17:36;28.50;94.90
42743;DHT22;28397;44.552;-0.848;2022-10-16T14:20:03;28.50;94.90
42743;DHT22;28397;44.552;-0.848;2022-10-16T14:24:58;28.70;94.60
42743;DHT22;28397;44.552;-0.848;2022-10-16T14:30:05;28.50;94.10
42743;DHT22;28397;44.552;-0.848;2022-10-16T14:32:33;28.40;94.40
42743;DHT22;28397;44.552;-0.848;2022-10-16T14:34:59;28.30;95.40
42743;DHT22;28397;44.552;-0.848;2022-10-16T14:37:26;28.40;94.00
42743;DHT22;28397;44.552;-0.848;2022-10-16T14:39:52;28.30;93.90
42743;DHT22;28397;44.552;-0.848;2022-10-16T14:42:19;28.10;94.00
42743;DHT22;28397;44.552;-0.848;2022-10-16T14:44:45;28.10;94.20
42743;DHT22;28397;44.552;-0.848;2022-10-16T14:47:15;28.10;94.60
42743;DHT22;28397;44.552;-0.848;2022-10-16T14:49:42;28.00;95.50
42743;DHT22;28397;44.552;-0.848;2022-10-16T14:52:11;28.00;95.20
42743;DHT22;28397;44.552;-0.848;2022-10-16T14:54:37;27.80;95.50
42743;DHT22;28397;44.552;-0.848;2022-10-16T14:57:03;27.90;95.30
42743;DHT22;28397;44.552;-0.848;2022-10-16T14:59:30;27.80;96.60
42743;DHT22;28397;44.552;-0.848;2022-10-16T15:01:56;27.80;95.90
42743;DHT22;28397;44.552;-0.848;2022-10-16T15:04:21;27.70;97.00
42743;DHT22;28397;44.552;-0.848;2022-10-16T15:06:47;27.70;97.20
42743;DHT22;28397;44.552;-0.848;2022-10-16T15:09:12;27.80;97.20
42743;DHT22;28397;44.552;-0.848;2022-10-16T15:11:38;27.80;97.40
42743;DHT22;28397;44.552;-0.848;2022-10-16T15:14:04;27.70;97.30
42743;DHT22;28397;44.552;-0.848;2022-10-16T15:16:30;27.60;98.40
42743;DHT22;28397;44.552;-0.848;2022-10-16T15:18:56;27.70;99.10
42743;DHT22;28397;44.552;-0.848;2022-10-16T15:23:50;27.80;98.10
42743;DHT22;28397;44.552;-0.848;2022-10-16T15:26:18;28.00;97.80
42743;DHT22;28397;44.552;-0.848;2022-10-16T15:28:44;28.00;98.20
42743;DHT22;28397;44.552;-0.848;2022-10-16T15:31:09;28.10;98.20
42743;DHT22;28397;44.552;-0.848;2022-10-16T15:33:35;28.00;97.30
42743;DHT22;28397;44.552;-0.848;2022-10-16T15:36:02;28.10;96.80
42743;DHT22;28397;44.552;-0.848;2022-10-16T15:38:28;28.10;96.90
42743;DHT22;28397;44.552;-0.848;2022-10-16T15:40:53;27.90;98.00
42743;DHT22;28397;44.552;-0.848;2022-10-16T15:43:19;27.80;97.80
42743;DHT22;28397;44.552;-0.848;2022-10-16T15:46:02;27.80;98.20
42743;DHT22;28397;44.552;-0.848;2022-10-16T15:48:29;28.10;96.70
42743;DHT22;28397;44.552;-0.848;2022-10-16T15:50:55;28.00;96.90
42743;DHT22;28397;44.552;-0.848;2022-10-16T15:53:20;27.90;96.70
42743;DHT22;28397;44.552;-0.848;2022-10-16T15:55:46;27.80;97.50
42743;DHT22;28397;44.552;-0.848;2022-10-16T15:58:11;27.70;97.10
42743;DHT22;28397;44.552;-0.848;2022-10-16T16:00:37;27.70;96.70
42743;DHT22;28397;44.552;-0.848;2022-10-16T16:03:03;27.50;97.70
42743;DHT22;28397;44.552;-0.848;2022-10-16T16:05:29;27.60;97.70
42743;DHT22;28397;44.552;-0.848;2022-10-16T16:07:54;27.50;97.70
42743;DHT22;28397;44.552;-0.848;2022-10-16T16:10:20;27.50;96.80
42743;DHT22;28397;44.552;-0.848;2022-10-16T16:12:47;27.50;97.10
42743;DHT22;28397;44.552;-0.848;2022-10-16T16:15:16;27.30;97.30
42743;DHT22;28397;44.552;-0.848;2022-10-16T16:17:42;27.40;97.10
42743;DHT22;28397;44.552;-0.848;2022-10-16T16:20:09;27.30;97.50
42743;DHT22;28397;44.552;-0.848;2022-10-16T16:22:35;27.20;97.80
42743;DHT22;28397;44.552;-0.848;2022-10-16T16:25:00;27.10;97.10
42743;DHT22;28397;44.552;-0.848;2022-10-16T16:27:26;27.00;97.50
42743;DHT22;28397;44.552;-0.848;2022-10-16T16:29:53;27.00;97.70
42743;DHT22;28397;44.552;-0.848;2022-10-16T16:32:20;26.80;98.40
42743;DHT22;28397;44.552;-0.848;2022-10-16T16:34:46;26.50;98.10
42743;DHT22;28397;44.552;-0.848;2022-10-16T16:37:12;26.50;98.70
42743;DHT22;28397;44.552;-0.848;2022-10-16T16:39:37;26.30;98.20
42743;DHT22;28397;44.552;-0.848;2022-10-16T16:42:03;26.20;98.40
42743;DHT22;28397;44.552;-0.848;2022-10-16T16:44:30;26.10;99.30
42743;DHT22;28397;44.552;-0.848;2022-10-16T16:46:56;25.90;99.00
42743;DHT22;28397;44.552;-0.848;2022-10-16T16:49:21;25.70;99.90
42743;DHT22;28397;44.552;-0.848;2022-10-16T16:51:47;25.60;99.90
42743;DHT22;28397;44.552;-0.848;2022-10-16T16:54:12;25.40;99.90
42743;DHT22;28397;44.552;-0.848;2022-10-16T16:56:39;25.30;99.90
42743;DHT22;28397;44.552;-0.848;2022-10-16T16:59:17;24.60;99.90
42743;DHT22;28397;44.552;-0.848;2022-10-16T17:01:45;24.00;99.90
42743;DHT22;28397;44.552;-0.848;2022-10-16T17:04:10;23.80;99.90
42743;DHT22;28397;44.552;-0.848;2022-10-16T17:06:36;23.40;99.90
42743;DHT22;28397;44.552;-0.848;2022-10-16T17:09:03;23.20;99.90
42743;DHT22;28397;44.552;-0.848;2022-10-16T17:11:29;23.00;99.90
42743;DHT22;28397;44.552;-0.848;2022-10-16T17:13:56;22.90;99.90
42743;DHT22;28397;44.552;-0.848;2022-10-16T17:16:22;22.80;99.90
42743;DHT22;28397;44.552;-0.848;2022-10-16T17:18:48;23.10;99.90
42743;DHT22;28397;44.552;-0.848;2022-10-16T17:21:14;23.80;99.90
42743;DHT22;28397;44.552;-0.848;2022-10-16T17:23:39;24.00;99.90
42743;DHT22;28397;44.552;-0.848;2022-10-16T17:26:10;23.90;99.90
42743;DHT22;28397;44.552;-0.848;2022-10-16T17:28:36;23.90;99.90
42743;DHT22;28397;44.552;-0.848;2022-10-16T17:31:08;23.80;99.90